Anl Warrnambool — DFXC2 — position and weather

sailwx.info

Track history (hours):
 
Tides and Currents Weather Stations Pressure Air Temp Water Temp Dewpoint Dewpoint Depression Visibility Wind Speed Wind Dir Waves Ship Positions

Anl Warrnambool

Last reported at 2017-Nov-13 12:00 UTC. Time now 2017-Nov-22 11:12 UTC.
Position S 24°06' W 158°12'.
Warning: this ship's position is 8 days out of date.

Length 262 m; draft 9.1 m.

Type: Ship (hazmat cat A). MMSI: 218829000.

Wind from 050 at 2 knots

Barometer 1013.5 mb
Air temperature 23.0 ° C
Visibility: greater than 10.8 NM
Dewpoint 16.9 ° C
Water temperature 23.5 ° C

Date/timePositionNaut miles runAvg speedWind from/ knotsBaromVisibWave heightAir tempDewpointWater temp
2017-Nov-13 12:00S 24°06' W 158°12'   050 / 21013.510.8 23.016.923.5
2017-Nov-10 12:26S 37°30' E 176°23'819.4
2017-Nov-10 12:01S 37°33' E 176°13'611.0
2017-Nov-10 11:30S 37°38' E 176°10'1 2.4
2017-Nov-10 10:58S 37°40' E 176°11'0 0.0
2017-Nov-10 10:25S 37°40' E 176°11'0 0.0
2017-Nov-10 09:58S 37°40' E 176°11'0 0.0
2017-Nov-10 09:28S 37°40' E 176°11'0 0.0
2017-Nov-10 08:58S 37°40' E 176°11'0 0.0
2017-Nov-10 08:28S 37°40' E 176°11'0 0.0
2017-Nov-10 07:58S 37°40' E 176°11'0 0.0
2017-Nov-10 07:28S 37°40' E 176°11'0 0.0
2017-Nov-10 06:58S 37°40' E 176°11'0 0.0
2017-Nov-10 06:28S 37°40' E 176°11'0 0.0
2017-Nov-10 05:58S 37°40' E 176°11'0 0.0
2017-Nov-10 05:28S 37°40' E 176°11'0 0.0
2017-Nov-10 04:58S 37°40' E 176°11'0 0.0
2017-Nov-10 04:28S 37°40' E 176°11'0 0.0
2017-Nov-10 03:58S 37°40' E 176°11'0 0.0
2017-Nov-10 03:28S 37°40' E 176°11'0 0.0
2017-Nov-10 02:58S 37°40' E 176°11'0 0.0
2017-Nov-10 02:28S 37°40' E 176°11'0 0.1
2017-Nov-10 01:58S 37°40' E 176°11'0 0.1
2017-Nov-10 01:28S 37°40' E 176°11'0 0.0
2017-Nov-10 00:58S 37°40' E 176°11'0 0.0
2017-Nov-10 00:28S 37°40' E 176°11'0 0.0
2017-Nov-09 23:58S 37°40' E 176°11'0 0.0
2017-Nov-09 23:25S 37°40' E 176°11'0 0.0
2017-Nov-09 22:58S 37°40' E 176°11'0 0.0
2017-Nov-09 22:28S 37°40' E 176°11'0 0.0
2017-Nov-09 21:58S 37°40' E 176°11'0 0.0
2017-Nov-09 21:28S 37°40' E 176°11'0 0.0
2017-Nov-09 20:58S 37°40' E 176°11'0 0.0
2017-Nov-09 20:28S 37°40' E 176°11'0 0.0
2017-Nov-09 19:58S 37°40' E 176°11'0 0.0
2017-Nov-09 19:28S 37°40' E 176°11'0 0.0
2017-Nov-09 18:58S 37°40' E 176°11'0 0.0
2017-Nov-09 18:28S 37°40' E 176°11'0 0.0
2017-Nov-09 17:58S 37°40' E 176°11'0 0.0
2017-Nov-09 17:28S 37°40' E 176°11'0 0.0
2017-Nov-09 16:58S 37°40' E 176°11'0 0.0
2017-Nov-09 16:28S 37°40' E 176°11'0 0.0
2017-Nov-09 15:58S 37°40' E 176°11'0 0.0
2017-Nov-09 15:28S 37°40' E 176°11'0 0.0
2017-Nov-09 14:58S 37°40' E 176°11'0 0.0
2017-Nov-09 14:28S 37°40' E 176°11'0 0.1
2017-Nov-09 13:58S 37°40' E 176°11'0 0.1
2017-Nov-09 13:28S 37°40' E 176°11'0 0.0
2017-Nov-09 12:55S 37°40' E 176°11'0 0.0
2017-Nov-09 12:29S 37°40' E 176°11'1 2.4
2017-Nov-09 12:00S 37°39' E 176°11'4 7.9
2017-Nov-09 11:30S 37°35' E 176°12'612.0
2017-Nov-09 11:00S 37°31' E 176°18'1 2.7
2017-Nov-09 10:29S 37°30' E 176°19'1 1.1
2017-Nov-09 10:00S 37°30' E 176°18'1 1.0
2017-Nov-09 09:28S 37°30' E 176°18'1 1.1
2017-Nov-09 09:00S 37°31' E 176°17'1 1.2
2017-Nov-09 08:30S 37°31' E 176°16'1 1.1
2017-Nov-09 08:00S 37°31' E 176°16'1 1.2
2017-Nov-09 07:30S 37°31' E 176°15'0 0.9
2017-Nov-09 07:00S 37°31' E 176°15'0 1.0
2017-Nov-09 06:30S 37°30' E 176°14'1 1.8
2017-Nov-09 06:00S 37°30' E 176°15'510.1
2017-Nov-09 05:29S 37°25' E 176°18'  
Track history (hours):
 
Tides and Currents Weather Stations Pressure Air Temp Water Temp Dewpoint Dewpoint Depression Visibility Wind Speed Wind Dir Waves Ship Positions

Anl Warrnambool

Last reported at 2017-Nov-13 12:00 UTC. Time now 2017-Nov-22 11:12 UTC.
Position S 24°06' W 158°12'.
Warning: this ship's position is 8 days out of date.

Length 262 m; draft 9.1 m.

Type: Ship (hazmat cat A). MMSI: 218829000.

Wind from 050 at 2 knots

Barometer 1013.5 mb
Air temperature 23.0 ° C
Visibility: greater than 10.8 NM
Dewpoint 16.9 ° C
Water temperature 23.5 ° C

Date/timePositionNaut miles runAvg speedWind from/ knotsBaromVisibWave heightAir tempDewpointWater temp
2017-Nov-13 12:00S 24°06' W 158°12'   050 / 21013.510.8 23.016.923.5
2017-Nov-10 12:26S 37°30' E 176°23'819.4
2017-Nov-10 12:01S 37°33' E 176°13'611.0
2017-Nov-10 11:30S 37°38' E 176°10'1 2.4
2017-Nov-10 10:58S 37°40' E 176°11'0 0.0
2017-Nov-10 10:25S 37°40' E 176°11'0 0.0
2017-Nov-10 09:58S 37°40' E 176°11'0 0.0
2017-Nov-10 09:28S 37°40' E 176°11'0 0.0
2017-Nov-10 08:58S 37°40' E 176°11'0 0.0
2017-Nov-10 08:28S 37°40' E 176°11'0 0.0
2017-Nov-10 07:58S 37°40' E 176°11'0 0.0
2017-Nov-10 07:28S 37°40' E 176°11'0 0.0
2017-Nov-10 06:58S 37°40' E 176°11'0 0.0
2017-Nov-10 06:28S 37°40' E 176°11'0 0.0
2017-Nov-10 05:58S 37°40' E 176°11'0 0.0
2017-Nov-10 05:28S 37°40' E 176°11'0 0.0
2017-Nov-10 04:58S 37°40' E 176°11'0 0.0
2017-Nov-10 04:28S 37°40' E 176°11'0 0.0
2017-Nov-10 03:58S 37°40' E 176°11'0 0.0
2017-Nov-10 03:28S 37°40' E 176°11'0 0.0
2017-Nov-10 02:58S 37°40' E 176°11'0 0.0
2017-Nov-10 02:28S 37°40' E 176°11'0 0.1
2017-Nov-10 01:58S 37°40' E 176°11'0 0.1
2017-Nov-10 01:28S 37°40' E 176°11'0 0.0
2017-Nov-10 00:58S 37°40' E 176°11'0 0.0
2017-Nov-10 00:28S 37°40' E 176°11'0 0.0
2017-Nov-09 23:58S 37°40' E 176°11'0 0.0
2017-Nov-09 23:25S 37°40' E 176°11'0 0.0
2017-Nov-09 22:58S 37°40' E 176°11'0 0.0
2017-Nov-09 22:28S 37°40' E 176°11'0 0.0
2017-Nov-09 21:58S 37°40' E 176°11'0 0.0
2017-Nov-09 21:28S 37°40' E 176°11'0 0.0
2017-Nov-09 20:58S 37°40' E 176°11'0 0.0
2017-Nov-09 20:28S 37°40' E 176°11'0 0.0
2017-Nov-09 19:58S 37°40' E 176°11'0 0.0
2017-Nov-09 19:28S 37°40' E 176°11'0 0.0
2017-Nov-09 18:58S 37°40' E 176°11'0 0.0
2017-Nov-09 18:28S 37°40' E 176°11'0 0.0
2017-Nov-09 17:58S 37°40' E 176°11'0 0.0
2017-Nov-09 17:28S 37°40' E 176°11'0 0.0
2017-Nov-09 16:58S 37°40' E 176°11'0 0.0
2017-Nov-09 16:28S 37°40' E 176°11'0 0.0
2017-Nov-09 15:58S 37°40' E 176°11'0 0.0
2017-Nov-09 15:28S 37°40' E 176°11'0 0.0
2017-Nov-09 14:58S 37°40' E 176°11'0 0.0
2017-Nov-09 14:28S 37°40' E 176°11'0 0.1
2017-Nov-09 13:58S 37°40' E 176°11'0 0.1
2017-Nov-09 13:28S 37°40' E 176°11'0 0.0
2017-Nov-09 12:55S 37°40' E 176°11'0 0.0
2017-Nov-09 12:29S 37°40' E 176°11'1 2.4
2017-Nov-09 12:00S 37°39' E 176°11'4 7.9
2017-Nov-09 11:30S 37°35' E 176°12'612.0
2017-Nov-09 11:00S 37°31' E 176°18'1 2.7
2017-Nov-09 10:29S 37°30' E 176°19'1 1.1
2017-Nov-09 10:00S 37°30' E 176°18'1 1.0
2017-Nov-09 09:28S 37°30' E 176°18'1 1.1
2017-Nov-09 09:00S 37°31' E 176°17'1 1.2
2017-Nov-09 08:30S 37°31' E 176°16'1 1.1
2017-Nov-09 08:00S 37°31' E 176°16'1 1.2
2017-Nov-09 07:30S 37°31' E 176°15'0 0.9
2017-Nov-09 07:00S 37°31' E 176°15'0 1.0
2017-Nov-09 06:30S 37°30' E 176°14'1 1.8
2017-Nov-09 06:00S 37°30' E 176°15'510.1
2017-Nov-09 05:29S 37°25' E 176°18'  

Dump ship's entire track history